Time;durP1;ratioP1;P1;durP2;ratioP2;P2;SDS_P1;SDS_P2;PMS_P1;PMS_P2;Temp;Humidity;BMP_temperature;BMP_pressure;BME280_temperature;BME280_humidity;BME280_pressure;Samples;Min_cycle;Max_cycle;Signal;HPM_P1;HPM_P2
2022/03/29 00:01:39;;;;;;;10.98;5.68;;;12.80;1.00;;;;;;5091214;28;20730;-74
2022/03/29 00:04:06;;;;;;;14.50;7.18;;;12.80;1.00;;;;;;5091564;28;20710;-74
2022/03/29 00:06:35;;;;;;;7.18;5.28;;;12.80;1.00;;;;;;5091179;28;20684;-74
2022/03/29 00:09:02;;;;;;;7.67;4.57;;;12.80;1.00;;;;;;5091843;28;20202;-75
2022/03/29 00:11:29;;;;;;;6.77;4.20;;;12.90;1.00;;;;;;5091596;28;20202;-72
2022/03/29 00:13:55;;;;;;;6.03;5.03;;;12.80;1.00;;;;;;5091521;28;20253;-73
2022/03/29 00:16:22;;;;;;;7.40;5.40;;;12.90;1.00;;;;;;5091127;28;20271;-74
2022/03/29 00:18:49;;;;;;;6.17;4.43;;;12.80;1.00;;;;;;5086946;28;20755;-72
2022/03/29 00:21:16;;;;;;;6.53;4.63;;;12.80;1.00;;;;;;5070758;28;20206;-68
2022/03/29 00:23:45;;;;;;;11.88;5.00;;;13.00;1.00;;;;;;5070627;28;20661;-74
2022/03/29 00:26:12;;;;;;;13.63;5.57;;;12.90;1.00;;;;;;5070887;28;20201;-71
2022/03/29 00:28:39;;;;;;;8.23;6.25;;;12.90;1.00;;;;;;5070739;28;20202;-71
2022/03/29 00:31:06;;;;;;;7.47;4.77;;;13.00;1.00;;;;;;5070821;28;20206;-70
2022/03/29 00:33:33;;;;;;;9.03;6.30;;;12.90;1.00;;;;;;5070684;28;20240;-69
2022/03/29 00:36:00;;;;;;;13.48;6.70;;;12.90;1.00;;;;;;5071254;28;20206;-71
2022/03/29 00:38:27;;;;;;;5.97;4.32;;;12.90;1.00;;;;;;5071127;28;20210;-70
2022/03/29 00:40:55;;;;;;;13.23;6.18;;;12.90;1.00;;;;;;5070332;28;20267;-71
2022/03/29 00:43:23;;;;;;;12.63;5.75;;;12.90;1.00;;;;;;5070673;28;20198;-72
2022/03/29 00:45:51;;;;;;;16.77;5.90;;;12.70;1.00;;;;;;5070464;28;20206;-73
2022/03/29 00:48:18;;;;;;;11.20;4.55;;;12.70;1.00;;;;;;5070846;28;20210;-72
2022/03/29 00:50:45;;;;;;;7.88;5.13;;;12.70;1.00;;;;;;5070186;28;20210;-73
2022/03/29 00:53:13;;;;;;;8.82;4.80;;;12.60;1.00;;;;;;5070715;28;20198;-72
2022/03/29 00:55:43;;;;;;;9.67;4.50;;;12.60;1.00;;;;;;5070309;28;20232;-73
2022/03/29 00:58:12;;;;;;;10.50;5.07;;;12.50;1.00;;;;;;5070694;28;20294;-73
2022/03/29 01:00:39;;;;;;;7.83;3.93;;;12.50;1.00;;;;;;5070226;28;20661;-72
2022/03/29 01:03:06;;;;;;;12.97;5.03;;;12.50;1.00;;;;;;5070545;28;20202;-74
2022/03/29 01:05:34;;;;;;;5.93;4.63;;;12.40;1.00;;;;;;5070376;28;20201;-73
2022/03/29 01:08:01;;;;;;;9.27;4.60;;;12.40;1.00;;;;;;5070448;28;20202;-72
2022/03/29 01:10:28;;;;;;;14.13;5.27;;;12.40;1.00;;;;;;5070881;28;20206;-74
2022/03/29 01:12:56;;;;;;;7.43;4.77;;;12.40;1.00;;;;;;5070381;28;20214;-74
2022/03/29 01:15:27;;;;;;;7.87;5.80;;;12.30;1.00;;;;;;5070901;28;20209;-72
2022/03/29 01:17:54;;;;;;;8.70;5.17;;;12.30;1.00;;;;;;5070248;28;20290;-72
2022/03/29 01:20:24;;;;;;;7.70;4.50;;;12.30;1.00;;;;;;5070454;28;20218;-72
2022/03/29 01:22:53;;;;;;;7.00;4.30;;;12.20;1.00;;;;;;5069809;28;20710;-72
2022/03/29 01:25:23;;;;;;;8.67;4.77;;;12.20;1.00;;;;;;5070369;28;20275;-72
2022/03/29 01:27:51;;;;;;;7.83;5.13;;;12.20;1.00;;;;;;5069910;28;20662;-72
2022/03/29 01:30:20;;;;;;;9.97;4.47;;;12.20;1.00;;;;;;5070309;28;20256;-72
2022/03/29 01:32:48;;;;;;;13.83;5.70;;;12.20;1.00;;;;;;5070214;28;20202;-70
2022/03/29 01:35:17;;;;;;;7.77;5.53;;;12.30;1.00;;;;;;5070338;28;20248;-71
2022/03/29 01:37:44;;;;;;;7.40;3.93;;;12.30;1.00;;;;;;5069817;28;20268;-75
2022/03/29 01:40:15;;;;;;;7.50;4.43;;;12.20;1.00;;;;;;5070141;28;20203;-73
2022/03/29 01:42:48;;;;;;;7.30;4.57;;;12.20;1.00;;;;;;5069684;28;20343;-73
2022/03/29 01:45:15;;;;;;;5.20;4.70;;;12.00;1.00;;;;;;5070346;28;20260;-73
2022/03/29 01:47:42;;;;;;;8.73;4.57;;;12.10;1.00;;;;;;5069805;28;20610;-70
2022/03/29 01:50:11;;;;;;;7.07;5.00;;;12.00;1.00;;;;;;5070147;28;20673;-69
2022/03/29 01:52:40;;;;;;;6.27;3.73;;;12.10;1.00;;;;;;5069521;28;20198;-71
2022/03/29 01:55:08;;;;;;;6.30;3.40;;;12.20;1.00;;;;;;5070000;28;20202;-69
2022/03/29 01:57:37;;;;;;;8.53;4.60;;;12.00;1.00;;;;;;5069783;28;20234;-70
2022/03/29 02:02:49;;;;;;;10.10;4.57;;;12.00;1.00;;;;;;5073227;28;20275;-71
2022/03/29 02:05:17;;;;;;;9.60;4.20;;;11.90;1.00;;;;;;5073822;28;20202;-73
2022/03/29 02:07:44;;;;;;;7.13;4.07;;;11.90;1.00;;;;;;5073227;28;20230;-70
2022/03/29 02:10:11;;;;;;;8.13;4.57;;;11.90;1.00;;;;;;5073704;28;20202;-69
2022/03/29 02:12:40;;;;;;;4.57;3.90;;;11.80;1.00;;;;;;5073273;28;20202;-69
2022/03/29 02:15:08;;;;;;;6.27;4.63;;;11.90;1.00;;;;;;5073580;28;20236;-69
2022/03/29 02:17:35;;;;;;;8.70;4.50;;;11.80;1.00;;;;;;5073007;28;20237;-71
2022/03/29 02:20:02;;;;;;;6.87;4.27;;;11.90;1.00;;;;;;5073101;28;20252;-70
2022/03/29 02:22:29;;;;;;;7.33;3.90;;;11.90;1.00;;;;;;5073805;28;20255;-71
2022/03/29 02:24:56;;;;;;;10.53;4.50;;;11.80;1.00;;;;;;5073311;28;20267;-71
2022/03/29 02:27:23;;;;;;;8.07;4.13;;;11.80;1.00;;;;;;5073369;28;20206;-73
2022/03/29 02:29:51;;;;;;;5.90;4.33;;;11.90;1.00;;;;;;5072868;28;20607;-70
2022/03/29 02:32:18;;;;;;;14.03;5.40;;;11.70;1.00;;;;;;5072842;28;20228;-71
2022/03/29 02:34:46;;;;;;;5.83;4.27;;;11.70;1.00;;;;;;5072763;28;20259;-71
2022/03/29 02:37:13;;;;;;;8.47;5.00;;;11.80;1.00;;;;;;5089186;28;20600;-73
2022/03/29 02:39:41;;;;;;;4.90;4.10;;;11.70;1.00;;;;;;5074348;28;20217;-74
2022/03/29 02:42:09;;;;;;;5.70;3.53;;;11.80;1.00;;;;;;5086165;28;20206;-73
2022/03/29 02:44:36;;;;;;;8.33;5.83;;;11.70;1.00;;;;;;5084142;28;20205;-72
2022/03/29 02:47:05;;;;;;;10.17;4.07;;;11.70;1.00;;;;;;5092708;28;20271;-74
2022/03/29 02:49:32;;;;;;;7.77;3.90;;;11.70;1.00;;;;;;5092665;28;20557;-70
2022/03/29 02:52:00;;;;;;;5.40;3.53;;;11.70;1.00;;;;;;5093004;28;20197;-72
2022/03/29 02:54:27;;;;;;;7.30;4.40;;;11.70;1.00;;;;;;5086422;28;20210;-71
2022/03/29 02:56:54;;;;;;;6.07;3.57;;;11.70;1.00;;;;;;5088633;28;20704;-71
2022/03/29 02:59:21;;;;;;;8.87;4.57;;;11.60;1.00;;;;;;5092517;28;20202;-69
2022/03/29 03:01:48;;;;;;;8.33;3.43;;;11.60;1.00;;;;;;5092248;28;20209;-70
2022/03/29 03:04:16;;;;;;;17.03;4.60;;;11.50;1.00;;;;;;5092484;28;20255;-70
2022/03/29 03:06:43;;;;;;;8.23;3.80;;;11.60;1.00;;;;;;5091828;28;20201;-70
2022/03/29 03:09:10;;;;;;;6.67;3.93;;;11.70;1.00;;;;;;5092296;28;20251;-70
2022/03/29 03:11:37;;;;;;;6.80;4.30;;;11.70;1.00;;;;;;5091693;28;20202;-70
2022/03/29 03:14:05;;;;;;;12.20;4.73;;;11.70;1.00;;;;;;5092263;28;20210;-71
2022/03/29 03:16:32;;;;;;;6.70;3.90;;;11.60;1.00;;;;;;5092315;28;20270;-71
2022/03/29 03:18:59;;;;;;;7.73;4.40;;;11.50;1.00;;;;;;5092375;28;20349;-70
2022/03/29 03:21:27;;;;;;;7.57;4.87;;;11.50;1.00;;;;;;5092688;28;20267;-71
2022/03/29 03:23:54;;;;;;;8.13;4.47;;;11.50;1.00;;;;;;5091524;28;20208;-70
2022/03/29 03:26:21;;;;;;;8.03;4.30;;;11.40;1.00;;;;;;5091886;28;20209;-71
2022/03/29 03:28:48;;;;;;;10.20;5.10;;;11.40;1.00;;;;;;5091531;28;20252;-70
2022/03/29 03:31:15;;;;;;;7.63;4.57;;;11.40;1.00;;;;;;5083380;28;20256;-70
2022/03/29 03:33:42;;;;;;;6.33;4.93;;;11.40;1.00;;;;;;5090315;28;20209;-71
2022/03/29 03:36:09;;;;;;;9.13;6.00;;;11.20;1.00;;;;;;5092082;28;20212;-70
2022/03/29 03:38:38;;;;;;;8.93;5.60;;;11.30;1.00;;;;;;5091477;28;20225;-70
2022/03/29 03:41:04;;;;;;;5.67;4.90;;;11.30;1.00;;;;;;5091883;28;20205;-77
2022/03/29 03:43:32;;;;;;;9.13;4.20;;;11.20;1.00;;;;;;5091854;28;20262;-73
2022/03/29 03:45:59;;;;;;;7.20;5.23;;;11.20;1.00;;;;;;5092097;28;20212;-72
2022/03/29 03:48:26;;;;;;;7.47;4.03;;;11.10;1.00;;;;;;5091718;28;20217;-72
2022/03/29 03:50:53;;;;;;;7.47;4.40;;;11.20;1.00;;;;;;5091039;28;20696;-73
2022/03/29 03:53:20;;;;;;;7.67;4.33;;;11.20;1.00;;;;;;5091180;28;20338;-74
2022/03/29 03:55:48;;;;;;;7.07;4.57;;;11.10;1.00;;;;;;5091167;28;20209;-75
2022/03/29 03:58:16;;;;;;;6.60;4.20;;;11.20;1.00;;;;;;5091159;28;20723;-74
2022/03/29 04:00:45;;;;;;;6.03;4.67;;;11.10;1.00;;;;;;5091170;28;20665;-72
2022/03/29 04:03:12;;;;;;;8.73;4.33;;;11.10;1.00;;;;;;5091292;28;20232;-72
2022/03/29 04:05:39;;;;;;;7.07;5.23;;;11.10;1.00;;;;;;5091012;28;20247;-74
2022/03/29 04:08:06;;;;;;;5.00;4.43;;;11.20;1.00;;;;;;5091107;28;20209;-71
2022/03/29 04:10:34;;;;;;;5.60;4.30;;;11.20;1.00;;;;;;5077140;28;20237;-71
2022/03/29 04:13:04;;;;;;;7.77;4.40;;;11.20;1.00;;;;;;5091575;28;20231;-71
2022/03/29 04:15:34;;;;;;;7.83;4.40;;;11.30;1.00;;;;;;5091348;28;20220;-70
2022/03/29 04:18:03;;;;;;;8.90;5.50;;;11.40;1.00;;;;;;5090650;28;20603;-71
2022/03/29 04:20:30;;;;;;;5.87;4.37;;;11.30;1.00;;;;;;5091030;28;20255;-71
2022/03/29 04:22:58;;;;;;;7.87;4.63;;;11.30;1.00;;;;;;5090708;28;20209;-71
2022/03/29 04:25:27;;;;;;;7.33;4.40;;;11.20;1.00;;;;;;5090924;28;20201;-70
2022/03/29 04:27:57;;;;;;;8.60;4.80;;;11.20;1.00;;;;;;5090373;28;20213;-70
2022/03/29 04:30:26;;;;;;;4.67;4.00;;;11.20;1.00;;;;;;5090339;28;20198;-70
2022/03/29 04:32:54;;;;;;;9.07;4.80;;;11.10;1.00;;;;;;5090190;28;20212;-71
2022/03/29 04:35:22;;;;;;;8.30;5.13;;;11.00;1.00;;;;;;5090695;28;20555;-72
2022/03/29 04:37:51;;;;;;;8.63;5.70;;;10.90;1.00;;;;;;5090622;28;20310;-73
2022/03/29 04:40:19;;;;;;;7.10;5.00;;;10.90;1.00;;;;;;5090578;28;20217;-71
2022/03/29 04:42:48;;;;;;;6.40;4.20;;;11.00;1.00;;;;;;5090284;28;20288;-71
2022/03/29 04:45:17;;;;;;;7.10;4.57;;;11.00;1.00;;;;;;5090214;28;20225;-69
2022/03/29 04:47:47;;;;;;;5.07;3.83;;;11.10;1.00;;;;;;5090337;28;20209;-72
2022/03/29 04:50:16;;;;;;;6.70;4.63;;;11.20;1.00;;;;;;5090465;28;20221;-73
2022/03/29 04:52:46;;;;;;;9.27;5.20;;;11.10;1.00;;;;;;5090044;28;20236;-70
2022/03/29 04:55:14;;;;;;;9.03;5.90;;;11.30;1.00;;;;;;5090483;28;20296;-70
2022/03/29 04:57:42;;;;;;;5.73;4.10;;;11.20;1.00;;;;;;5089660;28;20608;-69
2022/03/29 05:00:12;;;;;;;6.70;4.60;;;11.30;1.00;;;;;;5090029;28;20248;-71
2022/03/29 05:02:39;;;;;;;6.73;3.97;;;11.30;1.00;;;;;;5089742;28;20217;-70
2022/03/29 05:05:10;;;;;;;7.33;5.33;;;11.30;1.00;;;;;;5090857;28;20296;-70
2022/03/29 05:07:38;;;;;;;8.77;4.40;;;11.30;1.00;;;;;;5090047;28;20216;-70
2022/03/29 05:10:08;;;;;;;9.93;4.87;;;11.30;1.00;;;;;;5090193;28;20219;-69
2022/03/29 05:12:39;;;;;;;6.27;5.10;;;11.30;1.00;;;;;;5090234;28;20250;-69
2022/03/29 05:15:08;;;;;;;6.03;4.10;;;11.30;1.00;;;;;;5090421;28;20201;-69
2022/03/29 05:17:36;;;;;;;7.80;4.23;;;11.40;1.00;;;;;;5090355;28;20205;-70
2022/03/29 05:20:03;;;;;;;8.47;5.43;;;11.40;1.00;;;;;;5090500;28;20212;-70
2022/03/29 05:22:32;;;;;;;6.37;4.50;;;11.40;1.00;;;;;;5071278;28;20918;-69
2022/03/29 05:24:59;;;;;;;6.67;4.20;;;11.50;1.00;;;;;;5068554;28;20280;-69
2022/03/29 05:27:26;;;;;;;7.63;4.50;;;11.50;1.00;;;;;;5069041;28;20632;-72
2022/03/29 05:29:53;;;;;;;11.23;5.60;;;11.50;1.00;;;;;;5069075;28;20267;-70
2022/03/29 05:32:20;;;;;;;7.53;4.10;;;11.60;1.00;;;;;;5069415;28;20670;-69
2022/03/29 05:34:47;;;;;;;11.00;4.57;;;11.60;1.00;;;;;;5069814;28;20206;-69
2022/03/29 05:37:14;;;;;;;9.90;5.47;;;11.60;1.00;;;;;;5073566;28;20224;-69
2022/03/29 05:39:43;;;;;;;6.50;4.60;;;11.60;1.00;;;;;;5073222;28;20271;-70
2022/03/29 05:42:11;;;;;;;10.40;5.87;;;11.60;1.00;;;;;;5074343;28;20198;-70
2022/03/29 05:44:38;;;;;;;8.63;4.80;;;11.60;1.00;;;;;;5073511;28;20203;-69
2022/03/29 05:49:50;;;;;;;8.33;5.43;;;11.60;1.00;;;;;;5073479;28;20279;-70
2022/03/29 05:52:17;;;;;;;12.60;5.90;;;11.50;1.00;;;;;;5073927;28;20242;-70
2022/03/29 05:54:46;;;;;;;10.40;4.50;;;11.60;1.00;;;;;;5073736;28;20203;-71
2022/03/29 05:57:15;;;;;;;6.30;4.40;;;11.70;1.00;;;;;;5073994;28;20202;-68
2022/03/29 05:59:42;;;;;;;7.90;5.40;;;11.80;1.00;;;;;;5073176;28;20284;-68
2022/03/29 06:02:09;;;;;;;12.63;5.07;;;11.90;1.00;;;;;;5073796;28;20248;-69
2022/03/29 06:04:37;;;;;;;10.70;5.17;;;11.90;1.00;;;;;;5073091;28;20260;-69
2022/03/29 06:07:05;;;;;;;7.00;5.23;;;11.90;1.00;;;;;;5073829;28;20207;-68
2022/03/29 06:09:33;;;;;;;7.23;4.80;;;11.90;1.00;;;;;;5091672;28;20210;-67
2022/03/29 06:12:02;;;;;;;9.23;5.13;;;12.00;1.00;;;;;;5094004;28;20216;-67
2022/03/29 06:14:29;;;;;;;13.40;5.40;;;12.00;1.00;;;;;;5094004;28;20251;-70
2022/03/29 06:16:56;;;;;;;8.07;5.00;;;11.90;1.00;;;;;;5093716;28;20198;-72
2022/03/29 06:19:23;;;;;;;9.67;6.43;;;11.90;1.00;;;;;;5093313;28;20578;-72
2022/03/29 06:21:50;;;;;;;7.23;4.77;;;11.90;1.00;;;;;;5093520;28;20205;-69
2022/03/29 06:24:17;;;;;;;6.20;5.63;;;11.90;1.00;;;;;;5093894;28;20205;-73
2022/03/29 06:26:44;;;;;;;8.77;5.13;;;11.90;1.00;;;;;;5093116;28;20198;-69
2022/03/29 06:29:13;;;;;;;12.50;7.13;;;11.80;1.00;;;;;;5093898;28;20207;-70
2022/03/29 06:31:40;;;;;;;12.07;6.23;;;11.90;1.00;;;;;;5092147;28;20206;-74
2022/03/29 06:34:07;;;;;;;6.77;4.93;;;11.80;1.00;;;;;;5080712;28;20208;-71
2022/03/29 06:36:34;;;;;;;9.57;4.80;;;11.80;1.00;;;;;;5092908;28;20237;-73
2022/03/29 06:39:01;;;;;;;9.50;4.57;;;11.80;1.00;;;;;;5081214;28;20617;-70
2022/03/29 06:41:30;;;;;;;8.20;6.13;;;11.80;1.00;;;;;;5073036;28;20202;-69
2022/03/29 06:43:57;;;;;;;10.50;5.53;;;11.90;1.00;;;;;;5087830;28;20251;-69
2022/03/29 06:46:26;;;;;;;6.53;5.27;;;12.00;1.00;;;;;;5092417;28;20202;-74
2022/03/29 06:48:56;;;;;;;8.60;5.30;;;12.10;1.00;;;;;;5092069;28;21016;-69
2022/03/29 06:51:23;;;;;;;10.90;5.40;;;12.30;1.00;;;;;;5083138;28;20300;-69
2022/03/29 06:53:50;;;;;;;8.40;5.17;;;12.40;1.00;;;;;;5076996;28;20228;-67
2022/03/29 06:56:17;;;;;;;6.50;5.87;;;12.60;1.00;;;;;;5091103;28;20290;-67
2022/03/29 06:58:44;;;;;;;9.53;5.63;;;12.70;1.00;;;;;;5087750;28;20236;-70
2022/03/29 07:01:11;;;;;;;8.90;4.83;;;12.80;1.00;;;;;;5092303;28;20255;-72
2022/03/29 07:03:41;;;;;;;7.00;5.00;;;12.80;1.00;;;;;;5092008;28;20262;-70
2022/03/29 07:06:08;;;;;;;5.70;4.90;;;12.80;1.00;;;;;;5092700;28;20232;-70
2022/03/29 07:08:36;;;;;;;8.37;5.87;;;12.70;1.00;;;;;;5091510;28;20220;-73
2022/03/29 07:11:19;;;;;;;7.47;5.97;;;12.70;1.00;;;;;;5091912;28;20205;-73
2022/03/29 07:13:46;;;;;;;6.63;5.90;;;12.80;1.00;;;;;;5090172;28;20666;-73
2022/03/29 07:16:14;;;;;;;7.20;5.50;;;12.90;1.00;;;;;;5092100;28;20259;-73
2022/03/29 07:18:43;;;;;;;9.77;5.97;;;12.90;1.00;;;;;;5091638;28;20236;-72
2022/03/29 07:21:11;;;;;;;10.20;6.17;;;13.00;1.00;;;;;;5091723;28;20214;-71
2022/03/29 07:23:38;;;;;;;8.10;5.80;;;13.00;1.00;;;;;;5091657;28;20292;-68
2022/03/29 07:26:06;;;;;;;8.40;5.70;;;12.90;1.00;;;;;;5091683;28;20210;-70
2022/03/29 07:28:33;;;;;;;9.43;7.00;;;12.80;1.00;;;;;;5091569;28;20209;-68
2022/03/29 07:31:00;;;;;;;7.22;6.05;;;12.90;1.00;;;;;;5091956;28;20263;-70
2022/03/29 07:33:27;;;;;;;8.30;5.75;;;12.80;1.00;;;;;;5091997;28;20239;-71
2022/03/29 07:35:56;;;;;;;8.40;6.18;;;12.90;1.00;;;;;;5090589;28;20206;-69
2022/03/29 07:38:23;;;;;;;10.23;5.80;;;13.00;1.00;;;;;;5090886;28;20229;-69
2022/03/29 07:40:50;;;;;;;7.65;5.65;;;13.00;1.00;;;;;;5091046;28;20672;-69
2022/03/29 07:43:17;;;;;;;8.70;5.25;;;13.00;1.00;;;;;;5091785;28;20205;-68
2022/03/29 07:45:44;;;;;;;9.95;6.85;;;13.10;1.00;;;;;;5091288;28;20247;-69
2022/03/29 07:48:11;;;;;;;8.65;5.63;;;13.30;1.00;;;;;;5091537;28;20681;-68
2022/03/29 07:50:39;;;;;;;12.40;7.03;;;13.40;1.00;;;;;;5091043;28;20224;-68
2022/03/29 07:53:07;;;;;;;8.85;6.20;;;13.30;1.00;;;;;;5078958;28;20723;-69
2022/03/29 07:55:36;;;;;;;8.23;6.03;;;13.30;1.00;;;;;;5089968;28;20210;-69
2022/03/29 07:58:03;;;;;;;8.48;6.18;;;13.30;1.00;;;;;;5090854;28;20699;-69
2022/03/29 08:00:34;;;;;;;14.32;6.10;;;13.30;1.00;;;;;;5091000;28;20237;-69
2022/03/29 08:03:02;;;;;;;8.32;5.70;;;13.30;1.00;;;;;;5091323;28;20259;-69
2022/03/29 08:05:29;;;;;;;9.10;5.88;;;13.30;1.00;;;;;;5091425;28;20206;-68
2022/03/29 08:07:58;;;;;;;10.45;6.07;;;13.30;1.00;;;;;;5090204;28;20236;-68
2022/03/29 08:10:28;;;;;;;10.27;5.95;;;13.40;1.00;;;;;;5071611;28;20202;-69
2022/03/29 08:12:56;;;;;;;9.27;4.70;;;13.50;1.00;;;;;;5071106;28;20207;-69
2022/03/29 08:15:23;;;;;;;11.07;5.68;;;13.50;1.00;;;;;;5071293;28;20202;-69
2022/03/29 08:17:50;;;;;;;8.13;6.75;;;13.50;1.00;;;;;;5070709;28;20256;-69
2022/03/29 08:20:17;;;;;;;10.15;6.70;;;13.60;1.00;;;;;;5071081;28;20226;-69
2022/03/29 08:22:46;;;;;;;9.02;7.32;;;13.60;1.00;;;;;;5087979;28;20254;-69
2022/03/29 08:25:14;;;;;;;13.48;6.47;;;13.60;1.00;;;;;;5079397;28;20240;-69
2022/03/29 08:27:43;;;;;;;12.57;5.75;;;13.80;1.00;;;;;;5071108;28;20206;-69
2022/03/29 08:30:11;;;;;;;8.68;5.55;;;13.80;1.00;;;;;;5090560;28;20664;-69
2022/03/29 08:32:38;;;;;;;12.48;7.53;;;13.80;1.00;;;;;;5090845;28;20202;-69
2022/03/29 08:35:07;;;;;;;8.02;5.88;;;14.00;1.00;;;;;;5091277;28;20232;-69
2022/03/29 08:37:35;;;;;;;14.65;5.95;;;14.10;1.00;;;;;;5090237;28;20205;-70
2022/03/29 08:40:03;;;;;;;9.25;6.70;;;14.10;1.00;;;;;;5090594;28;20784;-71
2022/03/29 08:42:30;;;;;;;8.68;5.47;;;14.10;1.00;;;;;;5091416;28;20205;-69
2022/03/29 08:44:59;;;;;;;15.32;8.45;;;14.30;1.00;;;;;;5090623;28;20198;-69
2022/03/29 08:47:26;;;;;;;8.00;7.10;;;14.20;1.00;;;;;;5091593;28;20197;-70
2022/03/29 08:49:54;;;;;;;7.85;5.80;;;14.10;1.00;;;;;;5090496;28;20685;-69
2022/03/29 08:52:21;;;;;;;8.95;6.43;;;14.20;1.00;;;;;;5089049;28;20210;-69
2022/03/29 08:54:49;;;;;;;7.85;6.40;;;14.40;1.00;;;;;;5084023;28;20547;-69
2022/03/29 08:57:16;;;;;;;12.27;5.97;;;14.60;1.00;;;;;;5082959;28;20582;-69
2022/03/29 08:59:43;;;;;;;12.23;6.40;;;14.80;1.00;;;;;;5083881;28;20233;-69
2022/03/29 09:02:17;;;;;;;12.23;7.22;;;14.90;1.00;;;;;;5090626;28;20267;-71
2022/03/29 09:04:44;;;;;;;9.50;6.88;;;14.60;1.00;;;;;;5090124;28;20632;-69
2022/03/29 09:07:11;;;;;;;6.70;5.97;;;14.70;1.00;;;;;;5090468;28;20628;-69
2022/03/29 09:09:40;;;;;;;17.88;7.30;;;14.80;1.00;;;;;;5090776;28;20202;-69
2022/03/29 09:12:15;;;;;;;10.50;7.43;;;14.80;1.00;;;;;;5087242;28;20260;-69
2022/03/29 09:14:55;;;;;;;6.60;5.88;;;15.10;1.00;;;;;;5074250;28;20292;-68
2022/03/29 09:17:29;;;;;;;16.13;7.03;;;14.90;1.00;;;;;;5079199;28;20237;-69
2022/03/29 09:19:56;;;;;;;9.85;6.72;;;15.00;1.00;;;;;;5091268;28;20229;-69
2022/03/29 09:22:42;;;;;;;11.35;6.00;;;15.00;1.00;;;;;;5088913;28;20201;-69
2022/03/29 09:25:11;;;;;;;12.60;7.47;;;15.10;1.00;;;;;;5094308;28;20581;-69
2022/03/29 09:27:50;;;;;;;13.48;6.78;;;15.50;1.00;;;;;;5093986;28;20251;-70
2022/03/29 09:30:17;;;;;;;6.07;5.40;;;15.50;1.00;;;;;;5079319;28;20206;-69
2022/03/29 09:33:12;;;;;;;7.63;5.65;;;15.40;1.00;;;;;;5089942;28;20259;-69
2022/03/29 09:35:57;;;;;;;9.10;5.88;;;15.30;1.00;;;;;;5076685;28;20213;-69
2022/03/29 09:38:27;;;;;;;7.45;6.75;;;15.20;1.00;;;;;;5093777;28;20648;-68
2022/03/29 09:40:54;;;;;;;7.82;7.07;;;15.30;1.00;;;;;;5086171;28;20240;-69
2022/03/29 09:43:23;;;;;;;15.15;6.50;;;15.90;1.00;;;;;;5094082;28;20209;-70
2022/03/29 09:45:52;;;;;;;10.32;6.88;;;15.70;1.00;;;;;;5092786;28;20216;-70
2022/03/29 09:48:23;;;;;;;8.70;6.35;;;15.70;1.00;;;;;;5093168;28;20258;-69
2022/03/29 09:50:52;;;;;;;20.50;7.57;;;15.90;1.00;;;;;;5092781;28;20302;-70
2022/03/29 09:53:40;;;;;;;7.55;6.05;;;16.10;1.00;;;;;;5093965;28;20213;-70
2022/03/29 09:56:08;;;;;;;8.02;6.28;;;15.90;1.00;;;;;;5093718;28;20198;-70
2022/03/29 09:58:36;;;;;;;7.70;6.25;;;15.80;1.00;;;;;;5093164;28;20209;-70
2022/03/29 10:01:03;;;;;;;13.10;6.60;;;16.40;1.00;;;;;;5093499;28;20704;-69
2022/03/29 10:03:34;;;;;;;13.30;8.27;;;16.90;1.00;;;;;;5093441;28;20587;-70
2022/03/29 10:06:05;;;;;;;8.18;7.35;;;17.40;1.00;;;;;;5081856;28;20245;-69
2022/03/29 10:11:19;;;;;;;9.85;6.70;;;16.90;1.00;;;;;;5083861;28;20217;-69
2022/03/29 10:13:46;;;;;;;8.50;6.78;;;16.70;1.00;;;;;;5089607;28;20201;-70
2022/03/29 10:16:16;;;;;;;11.05;6.00;;;16.70;1.00;;;;;;5092875;28;20212;-69
2022/03/29 10:18:46;;;;;;;9.43;6.40;;;16.60;1.00;;;;;;5088846;28;20237;-70
2022/03/29 10:21:15;;;;;;;10.93;6.95;;;16.60;1.00;;;;;;5088867;28;20701;-72
2022/03/29 10:23:45;;;;;;;17.52;6.95;;;16.60;1.00;;;;;;5089848;28;20257;-71
2022/03/29 10:26:17;;;;;;;14.23;6.57;;;17.00;1.00;;;;;;5093393;28;20207;-72
2022/03/29 10:28:46;;;;;;;11.00;6.30;;;17.50;1.00;;;;;;5092873;28;20238;-70
2022/03/29 10:31:34;;;;;;;15.70;7.22;;;17.40;1.00;;;;;;5092873;28;20284;-72
2022/03/29 10:34:13;;;;;;;9.57;6.13;;;17.10;1.00;;;;;;5092858;28;20233;-69
2022/03/29 10:37:10;;;;;;;10.52;6.78;;;16.80;1.00;;;;;;5092789;28;20205;-73
2022/03/29 10:39:56;;;;;;;8.18;6.30;;;16.70;1.00;;;;;;5091364;28;20283;-72
2022/03/29 10:42:45;;;;;;;13.50;7.60;;;16.90;1.00;;;;;;5086939;28;20213;-69
2022/03/29 10:45:17;;;;;;;11.15;8.23;;;16.80;1.00;;;;;;5089134;28;20201;-71
2022/03/29 10:47:46;;;;;;;9.55;5.60;;;16.40;1.00;;;;;;5092254;28;20205;-69
2022/03/29 10:50:16;;;;;;;13.27;7.57;;;16.70;1.00;;;;;;5092472;28;20290;-69
2022/03/29 10:52:46;;;;;;;11.35;6.72;;;16.80;1.00;;;;;;5092075;28;20678;-69
2022/03/29 10:55:27;;;;;;;9.38;6.35;;;17.00;1.00;;;;;;5092502;28;20730;-68
2022/03/29 10:58:06;;;;;;;10.23;6.50;;;17.10;1.00;;;;;;5092390;28;20236;-68
2022/03/29 11:00:33;;;;;;;10.75;7.15;;;17.00;1.00;;;;;;5092307;28;20233;-68
2022/03/29 11:03:14;;;;;;;15.93;8.10;;;16.40;1.00;;;;;;5092658;28;20213;-68
2022/03/29 11:06:07;;;;;;;12.18;7.00;;;16.50;1.00;;;;;;5091323;28;20227;-68
2022/03/29 11:08:36;;;;;;;12.30;7.50;;;16.70;1.00;;;;;;5092341;28;20201;-68
2022/03/29 11:11:05;;;;;;;12.48;7.47;;;16.70;1.00;;;;;;5091923;28;20214;-68
2022/03/29 11:13:34;;;;;;;12.55;6.90;;;16.80;1.00;;;;;;5092805;28;20213;-68
2022/03/29 11:16:21;;;;;;;8.90;5.82;;;16.50;1.00;;;;;;5092760;28;20209;-68
2022/03/29 11:18:49;;;;;;;12.57;8.13;;;16.60;1.00;;;;;;5091796;28;20205;-68
2022/03/29 11:21:42;;;;;;;12.65;5.95;;;16.50;1.00;;;;;;5092320;28;20226;-68
2022/03/29 11:24:13;;;;;;;11.52;7.25;;;16.70;1.00;;;;;;5090677;28;20201;-68
2022/03/29 11:26:55;;;;;;;12.88;7.35;;;16.70;1.00;;;;;;5071681;28;20419;-68
2022/03/29 11:29:23;;;;;;;11.18;7.65;;;16.70;1.00;;;;;;5071831;28;20206;-68
2022/03/29 11:31:51;;;;;;;15.40;6.65;;;16.70;1.00;;;;;;5071313;28;20209;-68
2022/03/29 11:34:19;;;;;;;11.73;6.65;;;16.60;1.00;;;;;;5078871;28;20202;-67
2022/03/29 11:36:47;;;;;;;16.00;7.20;;;17.00;1.00;;;;;;5083148;28;20206;-68
2022/03/29 11:39:28;;;;;;;10.88;6.78;;;16.80;1.00;;;;;;5086985;28;20201;-68
2022/03/29 11:41:56;;;;;;;11.70;7.03;;;16.70;1.00;;;;;;5091331;28;20633;-68
2022/03/29 11:44:25;;;;;;;11.85;6.88;;;17.10;1.00;;;;;;5091689;28;20209;-68
2022/03/29 11:46:55;;;;;;;13.77;7.88;;;16.80;1.00;;;;;;5072099;28;20218;-68
2022/03/29 11:49:26;;;;;;;9.00;6.55;;;17.40;1.00;;;;;;5075429;28;20210;-68
2022/03/29 11:52:11;;;;;;;10.18;6.55;;;17.70;1.00;;;;;;5077268;28;20211;-68
2022/03/29 11:54:42;;;;;;;8.80;7.20;;;18.20;1.00;;;;;;5086901;28;20701;-68
2022/03/29 11:57:28;;;;;;;15.60;6.15;;;18.20;1.00;;;;;;5077950;28;20255;-68
2022/03/29 11:59:56;;;;;;;11.93;6.63;;;17.60;1.00;;;;;;5090979;28;20282;-68
2022/03/29 12:02:25;;;;;;;12.80;7.97;;;17.70;1.00;;;;;;5091262;28;20626;-68
2022/03/29 12:04:53;;;;;;;20.45;6.88;;;17.30;1.00;;;;;;5090722;28;20213;-68
2022/03/29 12:10:26;;;;;;;18.65;6.53;;;17.60;1.00;;;;;;5103274;27;21265;-70
2022/03/29 12:12:53;;;;;;;11.68;7.68;;;17.90;1.00;;;;;;5090123;28;20201;-69
2022/03/29 12:15:21;;;;;;;15.48;7.38;;;18.10;1.00;;;;;;5104491;28;20209;-69
2022/03/29 12:18:40;;;;;;;10.55;6.53;;;18.50;1.00;;;;;;5103607;28;20209;-68
2022/03/29 12:20:46;;;;;;;21.83;7.15;;;18.60;1.00;;;;;;5107738;28;20595;-68
2022/03/29 12:23:17;;;;;;;11.25;5.97;;;19.00;1.00;;;;;;5107949;28;20209;-68
2022/03/29 12:25:46;;;;;;;11.00;5.55;;;19.10;1.00;;;;;;5107766;28;20250;-68
2022/03/29 12:28:14;;;;;;;12.02;6.28;;;18.60;1.00;;;;;;5107905;28;20297;-68
2022/03/29 12:30:41;;;;;;;9.00;5.65;;;18.30;1.00;;;;;;5107307;28;20208;-68
2022/03/29 12:33:09;;;;;;;9.65;6.28;;;18.50;1.00;;;;;;5107734;28;20228;-68
2022/03/29 12:35:36;;;;;;;11.38;6.40;;;18.40;1.00;;;;;;5107907;28;20356;-69
2022/03/29 12:38:04;;;;;;;9.02;6.18;;;18.30;1.00;;;;;;5108136;28;20247;-69
2022/03/29 12:40:31;;;;;;;11.23;6.93;;;18.50;1.00;;;;;;5108140;28;20215;-68
2022/03/29 12:43:04;;;;;;;11.68;6.60;;;18.60;1.00;;;;;;5104705;28;20668;-68
2022/03/29 12:45:33;;;;;;;9.15;7.10;;;18.10;1.00;;;;;;5090209;28;20591;-68
2022/03/29 12:48:02;;;;;;;17.60;7.60;;;18.30;1.00;;;;;;5107729;28;20239;-68
2022/03/29 12:50:29;;;;;;;12.30;5.88;;;18.80;1.00;;;;;;5102359;28;20236;-68
2022/03/29 12:53:05;;;;;;;10.07;5.38;;;19.30;1.00;;;;;;5107089;28;20201;-68
2022/03/29 12:55:32;;;;;;;14.23;5.78;;;18.90;1.00;;;;;;5107463;28;20204;-68
2022/03/29 12:58:02;;;;;;;10.05;6.60;;;19.30;1.00;;;;;;5107760;28;20736;-68
2022/03/29 13:00:38;;;;;;;8.55;5.15;;;19.00;1.00;;;;;;5106961;28;20306;-68
2022/03/29 13:03:08;;;;;;;12.00;6.38;;;19.00;1.00;;;;;;5095529;28;20209;-68
2022/03/29 13:05:35;;;;;;;13.93;7.90;;;19.30;1.00;;;;;;5106346;28;20201;-68
2022/03/29 13:08:03;;;;;;;13.32;6.82;;;19.40;1.00;;;;;;5106870;28;20232;-68
2022/03/29 13:10:34;;;;;;;9.73;6.13;;;19.00;1.00;;;;;;5107397;28;20628;-68
2022/03/29 13:13:03;;;;;;;13.52;6.03;;;18.70;1.00;;;;;;5106830;28;20247;-69
2022/03/29 13:15:50;;;;;;;15.43;7.10;;;18.70;1.00;;;;;;5106959;28;20243;-68